Terminal Aerodrome Forecast
Issued by NWS

Home | Current Version | Previous Version | Text Only | Print | Product List | Glossary On
Versions: 1 2 3 4 5 6 7 8 9 10 11 12 13 14 15 16 17 18 19 20 21 22 23 24 25 26 27 28 29 30 31
000
FTAK31 PANC 010627 AAA
TAFAEN
TAF AMD
PAEN 010627Z 0106/0206 06006KT 3SM BR BKN004 OVC012
      TEMPO 0106/0109 6SM BR OVC020
     FM011200 03006KT 1SM BR BKN006
     FM012100 03010KT P6SM VCFG FEW010=

USA.gov is the U.S. government's official web portal to all federal, state and local government web resources and services.